秋田空港の過去48時間の天気

秋田空港 (Akita)

現在時刻: 7/23 03:35 JST (7/22 18:35 UTC) 以下の時間は現地時間です。

過去48時間のMETAR気象情報
時間 風向 風速(m/s) 視程 気温(℃) 湿度(%) 気圧(hPa) 天気現象
22 21:00 西北西 3 10km以上 24 89 1008
22 20:00 西北西 4 10km以上 25 89 1008
22 19:00 西北西 4 10km以上 26 84 1008
22 18:00 西 5 10km以上 26 84 1008
22 17:00 西北西 5 10km以上 26 84 1008
22 16:00 西 7 10km以上 27 79 1008
22 15:00 西 6 10km以上 27 79 1008
22 14:00 西 8 10km以上 27 79 1009
22 13:00 西 8 10km以上 28 70 1009
22 12:00 西 7 10km以上 28 70 1009
22 11:00 西 7 10km以上 28 74 1009
22 10:00 西 6 10km以上 28 74 1009
22 09:00 西 6 10km以上 27 79 1009
22 08:00 西 5 10km以上 26 84 1009
22 07:00 西 4 10km以上 26 84 1009
22 06:40 西 3 10km以上 26 84 1009
21 21:00 不定 1 8000m 26 89 1010
21 20:00 西南西 2 8000m 26 89 1010
21 19:00 西南西 2 7000m 27 84 1009
21 18:00 西南西 3 7000m 28 79 1009
21 17:00 西南西 4 8000m 28 79 1009
21 16:00 西 5 8000m 29 70 1009
21 15:00 西南西 3 8000m 29 70 1010
21 14:00 西 5 8000m 29 66 1010
21 13:00 西 6 8000m 29 66 1010
21 12:00 西 6 8000m 29 66 1010
21 11:00 南西 2 10km以上 29 58 1011
21 10:00 不定 2 8000m 28 70 1011
21 09:00 不定 1 8000m 26 84 1011
21 08:15 南東 2 7000m 24 83 1011
21 08:00 南東 2 4000m 23 89 1011 もや
21 07:44 南東 2 3500m 22 94 1012 部分霧 もや
21 07:10 南南東 2 3500m 22 94 1011 部分霧 もや
21 07:00 南東 2 2000m 22 94 1011 散在した霧 もや
21 06:50 南東 2 1200m 22 94 1011 散在した霧 もや
21 06:44 南東 2 600m 22 94 1011
21 06:40 南東 2 400m 22 94 1011
RJSK 221200Z 29005KT 9999 FEW008 SCT050 BKN/// 24/22 Q1008
RJSK 221100Z 29008KT 9999 FEW005 SCT008 BKN010 25/23 Q1008
RJSK 221000Z 29008KT 9999 FEW006 SCT010 BKN015 26/23 Q1008
RJSK 220900Z 28010KT 9999 FEW006 SCT009 BKN010 26/23 Q1008
RJSK 220800Z 29009KT 9999 FEW006 SCT009 BKN010 26/23 Q1008
RJSK 220700Z 28013KT 9999 FEW008 SCT009 BKN010 27/23 Q1008
RJSK 220600Z 27012KT 9999 FEW010 BKN012 BKN015 27/23 Q1008
RJSK 220500Z 28015KT 9999 FEW010 SCT012 BKN015 27/23 Q1009
RJSK 220400Z 28016KT 9999 FEW010 BKN015 BKN020 28/22 Q1009
RJSK 220300Z 26014KT 9999 FEW010 BKN015 BKN025 28/22 Q1009
RJSK 220200Z 26013KT 9999 FEW010 BKN015 BKN030 28/23 Q1009
RJSK 220100Z 26012KT 9999 FEW010 BKN015 BKN030 28/23 Q1009
RJSK 220000Z 27012KT 9999 FEW008 SCT012 BKN015 27/23 Q1009
RJSK 212300Z 27010KT 9999 FEW007 BKN010 BKN012 26/23 Q1009
RJSK 212200Z 26007KT 9999 FEW007 BKN010 BKN012 26/23 Q1009
RJSK 212140Z 26006KT 9999 FEW007 BKN010 BKN012 26/23 Q1009 RMK 1ST007 5ST010 6ST012 A2982
RJSK 211200Z VRB02KT 8000 FEW006 BKN010 BKN015 26/24 Q1010
RJSK 211100Z 24004KT 200V260 8000 FEW007 SCT010 BKN040 26/24 Q1010
RJSK 211000Z 24004KT 200V270 7000 FEW008 SCT010 BKN040 27/24 Q1009
RJSK 210900Z 24005KT 200V270 7000 FEW008 SCT012 BKN/// 28/24 Q1009
RJSK 210800Z 24008KT 8000 FEW010 BKN015 BKN/// 28/24 Q1009
RJSK 210700Z 27009KT 8000 FEW010 SCT015 BKN/// 29/23 Q1009
RJSK 210600Z 24006KT 200V290 8000 FEW010 BKN020 BKN/// 29/23 Q1010
RJSK 210500Z 28010KT 8000 FEW010 BKN020 29/22 Q1010
RJSK 210400Z 28011KT 8000 FEW010 SCT020 BKN025 29/22 Q1010
RJSK 210300Z 27011KT 8000 FEW010 BKN025 BKN/// 29/22 Q1010
RJSK 210200Z 23004KT 170V280 9999 FEW010 BKN025 BKN/// 29/20 Q1011
RJSK 210100Z VRB03KT 8000 FEW010 SCT020 BKN/// 28/22 Q1011
RJSK 210000Z VRB02KT 8000 FEW005 SCT120 BKN/// 26/23 Q1011
RJSK 202315Z 13003KT 100V170 7000 FEW002 SCT120 BKN/// 24/21 Q1011 RMK 1ST002 3AC120 A2988
RJSK 202300Z 13004KT 100V160 4000 BR FEW002 SCT005 BKN012 23/21 Q1011
RJSK 202244Z 14004KT 100V180 3500 R28/P1800N PRFG BR FEW001 SCT002 BKN005 22/21 Q1012 RMK 2ST001 4ST002 6ST005 A2988 1200NE-SE
RJSK 202210Z 15004KT 3500 R28/1300VP1800U PRFG BR SCT001 BKN002 BKN005 22/21 Q1011 RMK 3ST001 5ST002 6ST005 A2988 1000NE-SE
RJSK 202200Z 14004KT 100V190 2000 R28/0650VP1800U BCFG BR SCT001 BKN002 BKN005 22/21 Q1011
RJSK 202150Z 14004KT 100V160 1200 R28/0450V1100U BCFG BR SCT001 BKN002 BKN005 22/21 Q1011 RMK 4ST001 6ST002 7ST005 A2987
RJSK 202144Z 13004KT 100V170 0600 R28/0300V0600U FG BKN001 BKN002 22/21 Q1011 RMK 5ST001 7ST002 A2987
RJSK 202140Z 13004KT 110V170 0400 R28/0300V0600N FG BKN001 BKN002 22/21 Q1011 RMK 5ST001 7ST002 A2987